< < Back
Terminal Aerodrome Forecast


Current Version              Previous Versions:   1  2  3  4  5  6  7  8  9  

Terminal Aerodrome Forecast

093
FTUS42 KTAE 282300
TAFVLD
TAF
KVLD 282320Z 2900/2924 00000KT P6SM FEW080
      TEMPO 2908/2912 5SM BR
     FM291500 15003KT P6SM SCT050 BKN250
     FM291900 16005KT P6SM BKN050
      TEMPO 2920/2924 3SM TSRA SCT025CB BKN050=

Latest METAR

735
SAUS70 KWBC 291200 RRG
MTRVLD
METAR KVLD 291153Z 00000KT 7SM CLR 21/19 A3006 RMK AO2 SLP184 T02060189
10206 20183 53011


USA.gov is the U.S. government's official web portal to all federal, state and local government web resources and services.